Time;durP1;ratioP1;P1;durP2;ratioP2;P2;SDS_P1;SDS_P2;PMS_P1;PMS_P2;Temp;Humidity;BMP_temperature;BMP_pressure;BME280_temperature;BME280_humidity;BME280_pressure;Samples;Min_cycle;Max_cycle;Signal;HPM_P1;HPM_P2
2020/12/16 00:01:09;;;;;;;16.95;13.43;;;10.60;1.00;;;;;;5038015;28;20025;-89
2020/12/16 00:03:36;;;;;;;16.80;14.38;;;10.60;1.00;;;;;;5039148;28;20044;-93
2020/12/16 00:09:23;;;;;;;19.38;14.48;;;10.60;1.00;;;;;;5056596;28;20496;-95
2020/12/16 00:11:49;;;;;;;18.88;15.80;;;10.50;1.00;;;;;;5038552;28;20124;-94
2020/12/16 00:14:14;;;;;;;21.23;16.85;;;10.50;1.00;;;;;;5038958;28;20025;-94
2020/12/16 00:16:40;;;;;;;19.73;16.95;;;10.40;1.00;;;;;;5038520;28;20025;-94
2020/12/16 00:19:06;;;;;;;19.33;15.93;;;10.30;1.00;;;;;;5038538;28;20021;-95
2020/12/16 00:21:31;;;;;;;18.33;14.23;;;10.30;1.00;;;;;;5038703;28;20017;-95
2020/12/16 00:23:57;;;;;;;16.35;13.38;;;10.40;1.00;;;;;;5038500;28;20021;-95
2020/12/16 00:26:22;;;;;;;17.92;15.13;;;10.30;1.00;;;;;;5038569;28;20020;-95
2020/12/16 00:28:48;;;;;;;17.80;15.30;;;10.30;1.00;;;;;;5038485;28;20404;-95
2020/12/16 00:31:14;;;;;;;17.45;14.38;;;10.20;1.00;;;;;;5038482;28;20112;-95
2020/12/16 00:33:40;;;;;;;16.45;14.38;;;10.10;1.00;;;;;;5038088;28;20029;-95
2020/12/16 00:36:06;;;;;;;13.52;11.85;;;10.10;1.00;;;;;;5038289;28;20021;-95
2020/12/16 00:38:32;;;;;;;15.02;10.85;;;10.10;1.00;;;;;;5038028;28;20075;-94
2020/12/16 00:40:58;;;;;;;13.38;11.80;;;10.20;1.00;;;;;;5038221;28;20374;-95
2020/12/16 00:43:23;;;;;;;15.57;13.32;;;10.20;1.00;;;;;;5037488;28;20078;-95
2020/12/16 00:45:49;;;;;;;15.00;12.75;;;10.20;1.00;;;;;;5038003;28;20063;-94
2020/12/16 00:48:14;;;;;;;14.10;12.43;;;10.20;1.00;;;;;;5038027;28;20515;-95
2020/12/16 00:50:40;;;;;;;15.45;12.43;;;10.20;1.00;;;;;;5038012;28;20122;-94
2020/12/16 00:53:06;;;;;;;19.25;14.68;;;10.10;1.00;;;;;;5037826;28;20063;-95
2020/12/16 00:55:32;;;;;;;15.82;13.50;;;10.10;1.00;;;;;;5037772;28;20048;-94
2020/12/16 00:57:58;;;;;;;14.70;12.85;;;10.20;1.00;;;;;;5038116;28;20021;-94
2020/12/16 01:00:24;;;;;;;16.65;14.43;;;10.20;1.00;;;;;;5037675;28;20025;-94
2020/12/16 01:02:50;;;;;;;18.52;15.23;;;10.20;1.00;;;;;;5037735;28;20542;-95
2020/12/16 01:05:18;;;;;;;19.67;15.45;;;10.30;1.00;;;;;;5037548;28;20049;-95
2020/12/16 01:07:43;;;;;;;18.13;15.75;;;10.30;1.00;;;;;;5037768;28;20120;-94
2020/12/16 01:10:11;;;;;;;18.30;14.88;;;10.30;1.00;;;;;;5037730;28;20056;-95
2020/12/16 01:12:41;;;;;;;15.93;13.43;;;10.30;1.00;;;;;;5037616;28;20064;-95
2020/12/16 01:15:17;;;;;;;14.90;12.90;;;10.30;1.00;;;;;;5037408;28;20028;-94
2020/12/16 01:17:44;;;;;;;12.73;11.18;;;10.30;1.00;;;;;;5034510;28;20028;-95
2020/12/16 01:20:11;;;;;;;12.00;10.73;;;10.20;1.00;;;;;;5037342;28;20029;-94
2020/12/16 01:22:46;;;;;;;11.50;9.50;;;10.10;1.00;;;;;;5037294;28;20111;-95
2020/12/16 01:25:16;;;;;;;11.07;9.57;;;10.10;1.00;;;;;;5037170;28;20051;-95
2020/12/16 01:27:41;;;;;;;11.50;9.57;;;10.10;1.00;;;;;;5037528;28;20033;-95
2020/12/16 01:30:08;;;;;;;10.52;9.43;;;10.00;1.00;;;;;;5037034;28;20032;-95
2020/12/16 01:32:36;;;;;;;10.15;9.10;;;9.90;1.00;;;;;;5037174;28;20163;-95
2020/12/16 01:35:07;;;;;;;10.70;9.60;;;9.90;1.00;;;;;;5037242;28;20489;-95
2020/12/16 01:37:33;;;;;;;10.57;9.48;;;9.90;1.00;;;;;;5037233;28;20064;-95
2020/12/16 01:39:58;;;;;;;12.63;10.02;;;9.80;1.00;;;;;;5036929;28;20021;-95
2020/12/16 01:45:46;;;;;;;11.02;9.88;;;9.70;1.00;;;;;;5054715;28;20503;-95
2020/12/16 01:48:12;;;;;;;12.38;10.88;;;9.50;1.00;;;;;;5036873;28;20107;-95
2020/12/16 01:50:37;;;;;;;13.40;10.82;;;9.50;1.00;;;;;;5036646;28;20021;-95
2020/12/16 01:53:04;;;;;;;12.70;9.93;;;9.50;1.00;;;;;;5036938;28;20028;-95
2020/12/16 01:55:30;;;;;;;13.00;10.60;;;9.60;1.00;;;;;;5036579;28;20025;-96
2020/12/16 01:58:06;;;;;;;13.77;10.82;;;9.60;1.00;;;;;;5036617;28;20481;-95
2020/12/16 02:00:33;;;;;;;13.15;11.13;;;9.50;1.00;;;;;;5036763;28;20075;-94
2020/12/16 02:03:04;;;;;;;20.17;13.20;;;9.50;1.00;;;;;;5036631;28;20028;-95
2020/12/16 02:05:30;;;;;;;23.73;14.13;;;9.50;1.00;;;;;;5036368;28;20051;-95
2020/12/16 02:07:57;;;;;;;21.15;13.32;;;9.50;1.00;;;;;;5036549;28;20032;-95
2020/12/16 02:10:22;;;;;;;20.65;14.43;;;9.50;1.00;;;;;;5036478;28;20029;-95
2020/12/16 02:12:48;;;;;;;22.17;13.82;;;9.50;1.00;;;;;;5036319;28;20021;-95
2020/12/16 02:15:14;;;;;;;15.40;11.13;;;9.50;1.00;;;;;;5036444;28;20122;-95
2020/12/16 02:17:39;;;;;;;12.13;10.82;;;9.50;1.00;;;;;;5036259;28;20040;-95
2020/12/16 02:20:07;;;;;;;11.27;9.73;;;9.40;1.00;;;;;;5036446;28;20056;-95
2020/12/16 02:22:33;;;;;;;10.40;9.30;;;9.50;1.00;;;;;;5036072;28;20017;-95
2020/12/16 02:25:07;;;;;;;11.93;9.65;;;9.60;1.00;;;;;;5036525;28;20047;-95
2020/12/16 02:27:37;;;;;;;11.50;9.80;;;9.70;1.00;;;;;;5036291;28;20027;-95
2020/12/16 02:30:04;;;;;;;11.05;9.50;;;9.70;1.00;;;;;;5036084;28;20052;-94
2020/12/16 02:35:52;;;;;;;12.40;9.50;;;9.80;1.00;;;;;;5053771;28;20089;-94
2020/12/16 02:41:39;;;;;;;11.52;9.63;;;9.50;1.00;;;;;;5053994;28;20096;-95
2020/12/16 02:44:05;;;;;;;9.40;8.50;;;9.40;1.00;;;;;;5036189;28;20025;-95
2020/12/16 02:46:31;;;;;;;9.82;8.45;;;9.40;1.00;;;;;;5036510;28;20041;-95
2020/12/16 02:48:57;;;;;;;9.85;8.85;;;9.40;1.00;;;;;;5035968;28;20029;-95
2020/12/16 02:51:23;;;;;;;10.20;8.45;;;9.40;1.00;;;;;;5035824;28;20029;-94
2020/12/16 02:53:48;;;;;;;9.93;8.60;;;9.30;1.00;;;;;;5036135;28;20025;-94
2020/12/16 02:56:14;;;;;;;12.75;9.35;;;9.20;1.00;;;;;;5036055;28;20025;-95
2020/12/16 02:58:44;;;;;;;11.55;8.35;;;9.20;1.00;;;;;;5035899;28;20025;-94
2020/12/16 03:04:31;;;;;;;12.73;9.98;;;9.20;1.00;;;;;;5053594;28;20155;-95
2020/12/16 03:06:57;;;;;;;11.77;10.10;;;9.20;1.00;;;;;;5037471;28;20488;-94
2020/12/16 03:09:25;;;;;;;10.70;9.57;;;9.30;1.00;;;;;;5056505;28;20021;-95
2020/12/16 03:11:52;;;;;;;11.20;10.05;;;9.20;1.00;;;;;;5039909;28;20025;-95
2020/12/16 03:14:18;;;;;;;12.07;10.15;;;9.10;1.00;;;;;;5056304;28;20029;-94
2020/12/16 03:16:44;;;;;;;11.60;10.40;;;9.10;1.00;;;;;;5056331;28;20078;-94
2020/12/16 03:19:09;;;;;;;14.70;11.88;;;9.00;1.00;;;;;;5056117;28;20500;-95
2020/12/16 03:21:35;;;;;;;14.43;11.88;;;8.90;1.00;;;;;;5056037;28;20028;-94
2020/12/16 03:24:00;;;;;;;13.90;11.98;;;8.90;1.00;;;;;;5056349;28;20025;-95
2020/12/16 03:26:26;;;;;;;14.23;11.13;;;8.90;1.00;;;;;;5056268;28;20048;-95
2020/12/16 03:28:52;;;;;;;13.93;12.18;;;8.80;1.00;;;;;;5056158;28;20032;-94
2020/12/16 03:31:18;;;;;;;14.23;12.32;;;8.80;1.00;;;;;;5056040;28;20401;-95
2020/12/16 03:33:45;;;;;;;14.65;11.85;;;8.80;1.00;;;;;;5055906;28;20039;-95
2020/12/16 03:36:16;;;;;;;12.85;10.55;;;8.80;1.00;;;;;;5055707;28;20029;-95
2020/12/16 03:38:41;;;;;;;11.43;10.23;;;8.80;1.00;;;;;;5056007;28;20056;-94
2020/12/16 03:41:07;;;;;;;11.57;10.38;;;8.80;1.00;;;;;;5055771;28;20052;-94
2020/12/16 03:43:33;;;;;;;10.77;9.15;;;8.80;1.00;;;;;;5055728;28;20061;-95
2020/12/16 03:45:58;;;;;;;11.38;10.27;;;8.80;1.00;;;;;;5039344;28;20051;-95
2020/12/16 03:48:24;;;;;;;12.18;10.68;;;8.80;1.00;;;;;;5055504;28;20082;-95
2020/12/16 03:50:50;;;;;;;11.40;10.20;;;8.80;1.00;;;;;;5055602;28;20025;-95
2020/12/16 03:53:15;;;;;;;11.63;9.98;;;8.80;1.00;;;;;;5055708;28;20025;-95
2020/12/16 03:55:41;;;;;;;12.52;9.73;;;8.70;1.00;;;;;;5038807;28;20036;-95
2020/12/16 03:58:07;;;;;;;11.23;10.02;;;8.70;1.00;;;;;;5039030;28;20021;-94
2020/12/16 04:00:32;;;;;;;11.60;9.73;;;8.70;1.00;;;;;;5055387;28;20013;-95
2020/12/16 04:02:58;;;;;;;12.18;10.55;;;8.70;1.00;;;;;;5038738;28;20524;-94
2020/12/16 04:05:24;;;;;;;12.45;10.27;;;8.80;1.00;;;;;;5055069;28;20132;-95
2020/12/16 04:07:49;;;;;;;13.25;10.30;;;8.80;1.00;;;;;;5056181;28;20025;-95
2020/12/16 04:10:15;;;;;;;12.93;10.23;;;8.80;1.00;;;;;;5055584;28;20478;-95
2020/12/16 04:12:41;;;;;;;11.45;9.18;;;8.70;1.00;;;;;;5055000;28;20051;-95
2020/12/16 04:15:07;;;;;;;11.20;9.90;;;8.80;1.00;;;;;;5038704;28;20017;-94
2020/12/16 04:17:33;;;;;;;10.30;8.85;;;9.00;1.00;;;;;;5037886;28;20124;-95
2020/12/16 04:19:59;;;;;;;10.70;9.18;;;9.00;1.00;;;;;;5038145;28;20493;-95
2020/12/16 04:22:25;;;;;;;9.25;8.27;;;9.00;1.00;;;;;;5039016;28;20055;-95
2020/12/16 04:24:51;;;;;;;9.63;8.00;;;8.90;1.00;;;;;;5038505;28;20049;-94
2020/12/16 04:27:17;;;;;;;9.48;8.43;;;8.90;1.00;;;;;;5038163;28;20478;-94
2020/12/16 04:29:43;;;;;;;9.80;8.77;;;8.90;1.00;;;;;;5038328;28;20056;-94
2020/12/16 04:32:10;;;;;;;9.32;8.35;;;8.80;1.00;;;;;;5038384;28;20032;-95
2020/12/16 04:34:36;;;;;;;9.98;8.50;;;8.80;1.00;;;;;;5038254;28;20029;-94
2020/12/16 04:37:02;;;;;;;11.20;9.70;;;8.80;1.00;;;;;;5038375;28;20029;-95
2020/12/16 04:39:29;;;;;;;9.90;8.90;;;8.80;1.00;;;;;;5038303;28;20499;-95
2020/12/16 04:41:55;;;;;;;10.10;8.93;;;8.90;1.00;;;;;;5038188;28;20029;-94
2020/12/16 04:44:22;;;;;;;9.65;8.52;;;9.00;1.00;;;;;;5038170;28;20430;-94
2020/12/16 04:46:48;;;;;;;11.85;9.57;;;9.00;1.00;;;;;;5038124;28;20029;-95
2020/12/16 04:49:14;;;;;;;11.35;10.10;;;9.00;1.00;;;;;;5038015;28;20036;-95
2020/12/16 04:51:44;;;;;;;11.63;10.25;;;9.00;1.00;;;;;;5054915;28;20033;-94
2020/12/16 04:54:12;;;;;;;12.88;11.57;;;9.00;1.00;;;;;;5054316;28;20031;-94
2020/12/16 04:56:38;;;;;;;13.05;11.55;;;9.00;1.00;;;;;;5054345;28;20063;-94
2020/12/16 04:59:07;;;;;;;13.63;11.70;;;8.90;1.00;;;;;;5054344;28;20025;-95
2020/12/16 05:01:40;;;;;;;14.73;12.40;;;8.80;1.00;;;;;;5054444;28;20025;-94
2020/12/16 05:04:05;;;;;;;13.55;11.98;;;8.90;1.00;;;;;;5054079;28;20025;-94
2020/12/16 05:06:41;;;;;;;13.13;11.45;;;8.80;1.00;;;;;;5054320;28;20036;-95
2020/12/16 05:09:11;;;;;;;13.00;11.57;;;8.80;1.00;;;;;;5054344;28;20111;-95
2020/12/16 05:11:55;;;;;;;13.13;11.48;;;8.80;1.00;;;;;;5054227;28;20029;-94
2020/12/16 05:14:23;;;;;;;15.40;12.77;;;8.90;1.00;;;;;;5053860;28;20024;-95
2020/12/16 05:16:51;;;;;;;15.38;12.80;;;8.90;1.00;;;;;;5054044;28;20033;-94
2020/12/16 05:19:34;;;;;;;13.88;11.90;;;8.80;1.00;;;;;;5037812;28;20112;-95
2020/12/16 05:22:30;;;;;;;14.43;12.18;;;8.80;1.00;;;;;;5054449;28;20051;-94
2020/12/16 05:24:57;;;;;;;13.82;12.30;;;8.80;1.00;;;;;;5020841;28;20025;-95
2020/12/16 05:27:31;;;;;;;16.73;13.13;;;8.70;1.00;;;;;;5053700;28;20378;-94
2020/12/16 05:30:01;;;;;;;16.30;13.23;;;8.70;1.00;;;;;;5053668;28;20085;-94
2020/12/16 05:32:29;;;;;;;15.75;12.85;;;8.60;1.00;;;;;;5053790;28;20021;-94
2020/12/16 05:34:56;;;;;;;15.63;12.95;;;8.60;1.00;;;;;;5037304;28;20060;-95
2020/12/16 05:37:26;;;;;;;15.98;12.93;;;8.60;1.00;;;;;;5053777;28;20029;-94
2020/12/16 05:40:13;;;;;;;16.70;13.43;;;8.60;1.00;;;;;;5037064;28;20090;-95
2020/12/16 05:42:41;;;;;;;17.85;12.93;;;8.50;1.00;;;;;;5053468;28;20029;-95
2020/12/16 05:45:18;;;;;;;18.42;14.50;;;8.50;1.00;;;;;;5053639;28;20044;-94
2020/12/16 05:48:07;;;;;;;17.50;13.30;;;8.60;1.00;;;;;;5053325;28;20025;-95
2020/12/16 05:50:52;;;;;;;17.35;13.85;;;8.70;1.00;;;;;;5053262;28;20035;-94
2020/12/16 05:53:24;;;;;;;19.23;14.95;;;8.80;1.00;;;;;;5053383;28;20025;-95
2020/12/16 05:55:52;;;;;;;19.33;14.45;;;8.80;1.00;;;;;;5053537;28;20048;-95
2020/12/16 05:58:19;;;;;;;19.20;14.25;;;8.80;1.00;;;;;;5053171;28;20053;-95
2020/12/16 06:00:55;;;;;;;17.20;13.57;;;8.80;1.00;;;;;;5053217;28;20508;-94
2020/12/16 06:03:28;;;;;;;18.40;14.32;;;8.80;1.00;;;;;;5053371;28;20033;-94
2020/12/16 06:06:10;;;;;;;17.38;14.35;;;8.80;1.00;;;;;;5036278;28;20075;-94
2020/12/16 06:08:40;;;;;;;17.05;14.43;;;8.80;1.00;;;;;;5036635;28;20036;-94
2020/12/16 06:11:08;;;;;;;19.45;14.88;;;8.80;1.00;;;;;;5036569;28;20051;-94
2020/12/16 06:13:35;;;;;;;19.63;15.10;;;8.80;1.00;;;;;;5036251;28;20053;-94
2020/12/16 06:16:03;;;;;;;20.35;14.85;;;8.70;1.00;;;;;;5036962;28;20051;-95
2020/12/16 06:18:39;;;;;;;19.13;15.38;;;8.60;1.00;;;;;;5038699;28;20025;-96
2020/12/16 06:21:29;;;;;;;19.23;14.68;;;8.50;1.00;;;;;;5037037;28;20112;-95
2020/12/16 06:23:58;;;;;;;21.77;15.48;;;8.40;1.00;;;;;;5036222;28;20029;-95
2020/12/16 06:26:29;;;;;;;20.98;15.82;;;8.30;1.00;;;;;;5036384;28;20032;-94
2020/12/16 06:28:59;;;;;;;19.90;15.50;;;8.30;1.00;;;;;;5037242;28;20025;-94
2020/12/16 06:31:29;;;;;;;20.92;16.23;;;8.30;1.00;;;;;;5036381;28;20108;-91
2020/12/16 06:33:59;;;;;;;21.63;15.85;;;8.30;1.00;;;;;;5035836;28;20560;-94
2020/12/16 06:36:33;;;;;;;20.45;16.15;;;8.20;1.00;;;;;;5053054;28;20029;-92
2020/12/16 06:38:59;;;;;;;19.45;15.75;;;8.30;1.00;;;;;;5035782;28;20123;-91
2020/12/16 06:41:31;;;;;;;21.60;15.80;;;8.20;1.00;;;;;;5035245;28;20096;-93
2020/12/16 06:44:07;;;;;;;21.95;16.90;;;8.10;1.00;;;;;;5036227;28;20485;-94
2020/12/16 06:47:11;;;;;;;21.25;16.02;;;8.10;1.00;;;;;;5036576;28;20025;-94
2020/12/16 06:49:38;;;;;;;24.70;16.67;;;8.10;1.00;;;;;;5035957;28;20057;-95
2020/12/16 06:52:07;;;;;;;23.65;17.48;;;8.10;1.00;;;;;;5031751;28;20108;-92
2020/12/16 06:54:41;;;;;;;25.42;18.10;;;8.10;1.00;;;;;;5016227;28;20029;-94
2020/12/16 06:57:25;;;;;;;20.70;16.33;;;8.10;1.00;;;;;;5016144;28;20493;-93
2020/12/16 06:59:56;;;;;;;23.15;16.60;;;8.10;1.00;;;;;;5015980;28;20029;-96
2020/12/16 07:02:27;;;;;;;24.65;17.90;;;8.10;1.00;;;;;;5019721;28;20023;-90
2020/12/16 07:04:54;;;;;;;23.67;17.58;;;8.10;1.00;;;;;;5035016;28;20044;-89
2020/12/16 07:07:43;;;;;;;22.50;16.73;;;8.20;1.00;;;;;;5035098;28;20025;-90
2020/12/16 07:10:33;;;;;;;21.98;17.05;;;8.10;1.00;;;;;;5023306;28;20037;-91
2020/12/16 07:13:12;;;;;;;21.85;16.25;;;8.10;1.00;;;;;;5021426;28;20493;-91
2020/12/16 07:15:47;;;;;;;22.15;16.45;;;8.40;1.00;;;;;;5033235;28;20044;-92
2020/12/16 07:18:39;;;;;;;21.92;16.98;;;8.00;1.00;;;;;;5035243;28;20045;-91
2020/12/16 07:21:07;;;;;;;23.38;16.52;;;8.10;1.00;;;;;;5035180;28;20030;-91
2020/12/16 07:24:05;;;;;;;21.23;16.55;;;8.10;1.00;;;;;;5031439;28;20083;-90
2020/12/16 07:26:34;;;;;;;22.65;17.45;;;8.10;1.00;;;;;;4974655;28;20399;-89
2020/12/16 07:29:17;;;;;;;23.33;17.73;;;8.40;1.00;;;;;;4975020;28;20117;-89
2020/12/16 07:32:08;;;;;;;23.10;16.60;;;8.10;1.00;;;;;;4979843;28;20061;-88
2020/12/16 07:34:44;;;;;;;22.33;16.95;;;8.20;1.00;;;;;;4985188;28;20034;-90
2020/12/16 07:37:11;;;;;;;21.83;17.27;;;8.20;1.00;;;;;;4994953;28;20034;-89
2020/12/16 07:39:50;;;;;;;21.25;16.77;;;8.30;1.00;;;;;;5005539;28;20025;-87
2020/12/16 07:42:34;;;;;;;20.80;15.57;;;8.30;1.00;;;;;;5009669;28;20038;-88
2020/12/16 07:45:09;;;;;;;21.88;16.35;;;8.50;1.00;;;;;;5009778;28;20022;-88
2020/12/16 07:47:35;;;;;;;21.70;16.30;;;8.50;1.00;;;;;;5009817;28;20029;-88
2020/12/16 07:50:01;;;;;;;19.55;15.68;;;8.60;1.00;;;;;;5001109;28;20031;-88
2020/12/16 07:52:29;;;;;;;18.73;14.55;;;8.80;1.00;;;;;;4996473;28;20035;-88
2020/12/16 07:54:59;;;;;;;15.77;14.07;;;9.40;1.00;;;;;;4996735;28;20173;-88
2020/12/16 07:57:32;;;;;;;14.88;13.32;;;10.10;1.00;;;;;;4993671;28;20030;-88
2020/12/16 07:59:58;;;;;;;16.02;12.93;;;10.90;1.00;;;;;;4981143;28;20014;-90
2020/12/16 08:02:24;;;;;;;14.60;12.35;;;12.30;99.90;;;;;;5023504;28;20033;-88
2020/12/16 08:05:03;;;;;;;13.20;11.70;;;13.30;99.90;;;;;;5037304;28;20401;-89
2020/12/16 08:07:29;;;;;;;13.05;11.43;;;14.60;99.90;;;;;;5055322;28;20028;-88
2020/12/16 08:09:59;;;;;;;13.65;11.73;;;14.30;99.90;;;;;;5037556;28;20091;-88
2020/12/16 08:12:27;;;;;;;14.13;11.95;;;14.80;99.90;;;;;;5036639;28;20024;-89
2020/12/16 08:15:08;;;;;;;13.52;12.13;;;14.10;99.90;;;;;;5036967;28;20385;-89
2020/12/16 08:17:41;;;;;;;15.00;12.70;;;13.50;99.90;;;;;;5054765;28;20551;-88
2020/12/16 08:20:17;;;;;;;15.30;13.15;;;13.30;99.90;;;;;;5036257;28;20024;-88
2020/12/16 08:22:44;;;;;;;15.40;13.25;;;13.90;99.90;;;;;;5032920;28;20485;-88
2020/12/16 08:25:11;;;;;;;15.30;12.93;;;14.40;99.90;;;;;;5017166;28;20450;-89
2020/12/16 08:27:44;;;;;;;14.90;12.70;;;15.80;99.90;;;;;;5017111;28;20029;-89
2020/12/16 08:30:12;;;;;;;14.30;12.07;;;18.00;99.90;;;;;;5017051;28;20053;-89
2020/12/16 08:33:17;;;;;;;15.30;12.85;;;19.00;99.90;;;;;;5016742;28;20284;-89
2020/12/16 08:35:49;;;;;;;14.15;12.10;;;18.70;99.90;;;;;;5023788;28;20035;-89
2020/12/16 08:38:27;;;;;;;17.00;12.73;;;18.10;99.90;;;;;;5036392;28;20507;-89
2020/12/16 08:40:55;;;;;;;12.57;10.77;;;17.70;99.90;;;;;;5036390;28;20052;-89
2020/12/16 08:43:30;;;;;;;10.90;9.80;;;20.60;99.90;;;;;;5054106;28;20088;-89
2020/12/16 08:46:00;;;;;;;15.23;10.82;;;22.50;99.90;;;;;;5043405;28;20029;-89
2020/12/16 08:48:25;;;;;;;12.38;10.13;;;23.40;99.90;;;;;;5033270;28;20065;-89
2020/12/16 08:51:13;;;;;;;14.60;12.93;;;22.30;99.90;;;;;;5025425;28;20083;-89
2020/12/16 08:53:58;;;;;;;12.40;10.95;;;17.80;99.90;;;;;;5043542;28;20075;-89
2020/12/16 08:56:31;;;;;;;13.30;11.85;;;15.40;99.90;;;;;;5053937;28;20025;-89
2020/12/16 08:59:13;;;;;;;14.60;12.10;;;14.30;99.90;;;;;;5036053;28;20021;-89
2020/12/16 09:01:47;;;;;;;14.38;12.63;;;13.10;99.90;;;;;;5036291;28;20024;-89
2020/12/16 09:04:24;;;;;;;14.30;12.13;;;12.50;99.90;;;;;;5035290;28;20029;-89
2020/12/16 09:07:06;;;;;;;13.85;11.95;;;12.40;99.90;;;;;;5053268;28;20037;-89
2020/12/16 09:09:34;;;;;;;15.23;13.50;;;13.10;99.90;;;;;;5036047;28;20033;-89
2020/12/16 09:12:00;;;;;;;13.00;11.63;;;13.50;99.90;;;;;;5035706;28;20060;-89
2020/12/16 09:14:26;;;;;;;13.05;11.63;;;14.80;99.90;;;;;;5035473;28;20029;-89
2020/12/16 09:16:52;;;;;;;12.98;11.20;;;17.10;99.90;;;;;;5035681;28;20052;-89
2020/12/16 09:19:23;;;;;;;13.25;11.30;;;20.80;99.90;;;;;;5035992;28;20045;-89
2020/12/16 09:21:50;;;;;;;13.68;11.98;;;22.40;99.90;;;;;;5035243;28;20025;-89
2020/12/16 09:24:23;;;;;;;13.20;11.73;;;21.50;99.90;;;;;;5053569;28;20458;-89
2020/12/16 09:26:50;;;;;;;15.48;12.57;;;21.20;99.90;;;;;;5051991;28;20029;-89
2020/12/16 09:29:18;;;;;;;15.00;12.77;;;24.00;99.90;;;;;;5053392;28;20032;-89
2020/12/16 09:31:45;;;;;;;15.32;13.15;;;23.60;99.90;;;;;;5035578;28;20368;-90
2020/12/16 09:34:11;;;;;;;18.25;14.10;;;20.80;99.90;;;;;;5052883;28;20043;-89
2020/12/16 09:36:36;;;;;;;16.05;13.25;;;18.60;99.90;;;;;;5022974;28;20124;-89
2020/12/16 09:39:05;;;;;;;16.63;13.95;;;18.50;99.90;;;;;;5033598;28;20032;-89
2020/12/16 09:41:50;;;;;;;13.77;12.35;;;20.70;99.90;;;;;;5053240;28;20444;-89
2020/12/16 09:44:26;;;;;;;13.80;11.95;;;22.60;99.90;;;;;;5052890;28;20112;-90
2020/12/16 09:46:52;;;;;;;15.38;12.23;;;24.30;99.90;;;;;;5052738;28;20063;-89
2020/12/16 09:49:19;;;;;;;13.45;11.18;;;23.80;99.90;;;;;;5034658;28;20056;-89
2020/12/16 09:51:45;;;;;;;13.82;12.07;;;24.90;99.90;;;;;;5052742;28;20079;-90
2020/12/16 09:54:26;;;;;;;14.00;12.38;;;24.60;99.90;;;;;;5051620;28;20049;-90
2020/12/16 09:56:52;;;;;;;13.98;12.48;;;24.90;99.90;;;;;;5052588;28;20025;-89
2020/12/16 09:59:18;;;;;;;14.25;11.95;;;26.00;99.90;;;;;;5052856;28;20083;-90
2020/12/16 10:01:44;;;;;;;14.20;12.65;;;25.40;99.90;;;;;;5035154;28;20396;-90
2020/12/16 10:04:09;;;;;;;15.18;11.98;;;25.60;99.90;;;;;;5052226;28;20054;-90
2020/12/16 10:06:35;;;;;;;14.20;12.55;;;25.40;99.90;;;;;;5050913;28;20044;-90
2020/12/16 10:09:01;;;;;;;14.75;12.43;;;24.90;99.90;;;;;;5034733;28;20029;-90
2020/12/16 10:11:26;;;;;;;14.00;11.52;;;25.10;99.90;;;;;;5034928;28;20089;-90
2020/12/16 10:13:52;;;;;;;11.95;10.75;;;26.00;99.90;;;;;;5034786;28;20499;-90
2020/12/16 10:16:17;;;;;;;10.63;9.52;;;27.40;99.90;;;;;;5051564;28;20370;-90
2020/12/16 10:18:43;;;;;;;11.43;9.98;;;26.20;99.90;;;;;;5034318;28;20531;-90
2020/12/16 10:21:08;;;;;;;10.52;9.48;;;26.00;99.90;;;;;;5034381;28;20021;-90
2020/12/16 10:23:34;;;;;;;7.72;7.03;;;26.20;99.90;;;;;;5034742;28;20380;-90
2020/12/16 10:26:00;;;;;;;8.18;6.60;;;26.00;99.90;;;;;;5034339;28;20114;-90
2020/12/16 10:28:25;;;;;;;6.47;5.88;;;26.20;99.90;;;;;;5052597;28;20032;-90
2020/12/16 10:30:51;;;;;;;7.53;6.57;;;25.80;99.90;;;;;;5034609;28;20029;-90
2020/12/16 10:33:17;;;;;;;6.85;6.20;;;26.20;99.90;;;;;;5051997;28;20036;-89
2020/12/16 10:35:43;;;;;;;6.55;5.90;;;26.10;99.90;;;;;;5051868;28;20060;-90
2020/12/16 10:38:09;;;;;;;6.93;6.00;;;26.50;99.90;;;;;;5052287;28;20601;-90
2020/12/16 10:40:35;;;;;;;6.28;5.68;;;26.70;99.90;;;;;;5052183;28;20091;-90
2020/12/16 10:43:02;;;;;;;7.93;6.75;;;25.90;99.90;;;;;;5051943;28;20017;-89
2020/12/16 10:45:28;;;;;;;6.93;6.32;;;27.50;99.90;;;;;;5052181;28;20021;-90
2020/12/16 10:47:57;;;;;;;7.05;6.35;;;29.10;99.90;;;;;;5034061;28;20374;-90
2020/12/16 10:50:30;;;;;;;6.50;5.90;;;28.70;99.90;;;;;;5052094;28;20473;-90
2020/12/16 10:53:00;;;;;;;7.13;5.88;;;28.60;99.90;;;;;;5034091;28;20163;-90
2020/12/16 10:55:26;;;;;;;7.00;5.45;;;28.60;99.90;;;;;;5052087;28;20021;-90
2020/12/16 10:57:52;;;;;;;6.43;5.82;;;28.40;99.90;;;;;;5034327;28;20401;-90
2020/12/16 11:00:18;;;;;;;7.63;6.63;;;29.30;99.90;;;;;;5051787;28;20506;-90
2020/12/16 11:02:44;;;;;;;5.70;5.10;;;29.20;99.90;;;;;;5033687;28;20473;-90
2020/12/16 11:05:10;;;;;;;4.55;4.15;;;28.00;99.90;;;;;;5033814;28;20067;-90
2020/12/16 11:07:35;;;;;;;3.80;3.50;;;27.50;99.90;;;;;;5034239;28;20048;-90
2020/12/16 11:10:01;;;;;;;4.32;3.33;;;28.10;99.90;;;;;;5034263;28;20440;-90
2020/12/16 11:12:27;;;;;;;5.85;3.33;;;28.80;99.90;;;;;;5034198;28;20021;-90
2020/12/16 11:14:52;;;;;;;3.70;3.40;;;29.10;99.90;;;;;;5034205;28;20056;-90
2020/12/16 11:17:18;;;;;;;4.07;3.38;;;28.30;99.90;;;;;;5051097;28;20033;-90
2020/12/16 11:19:44;;;;;;;3.72;3.05;;;28.30;99.90;;;;;;5032272;28;20401;-90
2020/12/16 11:22:09;;;;;;;3.30;3.00;;;28.60;99.90;;;;;;5023781;28;20017;-90
2020/12/16 11:24:35;;;;;;;3.53;2.85;;;29.00;99.90;;;;;;5033991;28;20477;-90
2020/12/16 11:27:01;;;;;;;3.30;3.00;;;27.60;99.90;;;;;;5034202;28;20029;-90
2020/12/16 11:29:26;;;;;;;3.22;2.80;;;27.80;99.90;;;;;;5055784;28;20078;-90
2020/12/16 11:31:54;;;;;;;2.70;2.50;;;27.80;99.90;;;;;;5037476;28;20031;-90
2020/12/16 11:34:22;;;;;;;2.67;2.42;;;27.70;99.90;;;;;;5037516;28;20029;-90
2020/12/16 11:36:50;;;;;;;3.03;2.03;;;27.90;99.90;;;;;;5037323;28;20021;-90
2020/12/16 11:39:16;;;;;;;2.05;1.85;;;27.40;99.90;;;;;;5037693;28;20029;-90
2020/12/16 11:41:47;;;;;;;2.08;1.85;;;26.70;99.90;;;;;;5037562;28;20392;-90
2020/12/16 11:44:14;;;;;;;2.28;1.92;;;25.20;99.90;;;;;;5037076;28;20477;-90
2020/12/16 11:46:40;;;;;;;1.73;1.63;;;24.80;99.90;;;;;;5055029;28;20017;-90
2020/12/16 11:49:06;;;;;;;3.53;2.05;;;24.00;99.90;;;;;;5054038;28;20033;-90
2020/12/16 11:51:32;;;;;;;4.00;2.08;;;23.10;99.90;;;;;;5037025;28;20033;-90
2020/12/16 11:53:58;;;;;;;3.13;1.70;;;21.40;99.90;;;;;;5055276;28;20036;-90
2020/12/16 11:56:24;;;;;;;4.43;2.47;;;19.80;99.90;;;;;;5037311;28;20052;-90
2020/12/16 11:58:50;;;;;;;2.60;1.90;;;19.00;99.90;;;;;;5037400;28;20094;-90
2020/12/16 12:01:16;;;;;;;3.28;1.67;;;19.10;99.90;;;;;;5055296;28;20021;-90
2020/12/16 12:03:42;;;;;;;2.55;1.92;;;19.20;99.90;;;;;;5037053;28;20025;-90
2020/12/16 12:06:09;;;;;;;2.53;1.77;;;19.10;99.90;;;;;;5036895;28;20045;-89
2020/12/16 12:08:35;;;;;;;2.85;1.88;;;20.10;99.90;;;;;;5037446;28;20447;-90
2020/12/16 12:11:01;;;;;;;2.72;1.88;;;21.00;99.90;;;;;;5054955;28;20037;-90
2020/12/16 12:13:27;;;;;;;3.28;1.85;;;21.90;99.90;;;;;;5054476;28;20445;-89
2020/12/16 12:15:52;;;;;;;1.98;1.42;;;22.40;99.90;;;;;;5036738;28;20021;-90
2020/12/16 12:18:18;;;;;;;2.97;2.17;;;22.50;99.90;;;;;;5034534;28;20124;-90
2020/12/16 12:20:44;;;;;;;2.45;1.80;;;23.20;99.90;;;;;;5017135;28;20028;-90
2020/12/16 12:23:10;;;;;;;2.97;2.00;;;22.90;99.90;;;;;;5017141;28;20026;-90
2020/12/16 12:25:35;;;;;;;2.53;2.15;;;22.50;99.90;;;;;;5017174;28;20067;-90
2020/12/16 12:28:01;;;;;;;2.15;1.92;;;22.20;99.90;;;;;;5034221;28;20410;-90
2020/12/16 12:30:27;;;;;;;2.20;2.00;;;21.60;99.90;;;;;;5016787;28;20021;-90
2020/12/16 12:32:52;;;;;;;1.98;1.75;;;22.80;99.90;;;;;;5034865;28;20033;-90
2020/12/16 12:35:18;;;;;;;2.85;2.10;;;23.40;99.90;;;;;;5054384;28;20052;-90
2020/12/16 12:37:44;;;;;;;4.00;2.08;;;22.20;99.90;;;;;;5053979;28;20024;-90
2020/12/16 12:40:09;;;;;;;3.05;2.10;;;22.80;99.90;;;;;;5035447;28;20060;-90
2020/12/16 12:42:35;;;;;;;5.05;2.13;;;22.30;99.90;;;;;;5036289;28;20055;-90
2020/12/16 12:45:01;;;;;;;5.18;2.17;;;22.00;99.90;;;;;;5054330;28;20064;-90
2020/12/16 12:47:26;;;;;;;2.38;1.98;;;21.60;99.90;;;;;;5036152;28;20029;-90
2020/12/16 12:49:52;;;;;;;4.80;2.17;;;20.80;99.90;;;;;;5036175;28;20025;-90
2020/12/16 12:52:18;;;;;;;4.13;1.80;;;20.60;99.90;;;;;;5036282;28;20452;-90
2020/12/16 12:54:43;;;;;;;2.28;1.80;;;20.10;99.90;;;;;;5036505;28;20029;-90
2020/12/16 12:57:09;;;;;;;3.05;2.10;;;20.70;99.90;;;;;;5035955;28;20064;-90
2020/12/16 12:59:35;;;;;;;2.92;1.65;;;23.40;99.90;;;;;;5036079;28;20031;-90
2020/12/16 13:02:01;;;;;;;2.40;1.65;;;23.90;99.90;;;;;;5035995;28;20086;-90
2020/12/16 13:04:26;;;;;;;2.45;1.90;;;23.90;99.90;;;;;;5053268;28;20045;-90
2020/12/16 13:06:52;;;;;;;1.95;1.60;;;23.50;99.90;;;;;;5036073;28;20139;-90
2020/12/16 13:09:17;;;;;;;2.95;1.70;;;22.60;99.90;;;;;;5035946;28;20071;-89